Terminal Aerodrome Forecast
Issued by NWS Charleston, WV

Current Version | Previous Version | Text Only | Print | Product List | Glossary On
Versions: 1 2 3 4 5 6 7 8 9 10 11 12 13 14 15 16 17 18 19 20 21 22 23
041
FTUS41 KRLX 240605 AAA
TAFBKW
TAF AMD
KBKW 240605Z 2406/2506 22004KT P6SM VCSH BKN009
     FM240700 23004KT 6SM BR BKN010
     FM241400 27005KT P6SM SCT050
     FM241800 28010KT P6SM BKN050
     FM250000 31005KT P6SM SCT100=

USA.gov is the U.S. government's official web portal to all federal, state and local government web resources and services.